• Join FlightAware (Why Join?)
  • Login
  • US Flag 
03:19PM EDT


 

Airport Tracker/Info


-or-


 

Live Flight TrackerFlight Track Log ✈ SKW6446 ✈ 02-May-2013 ✈ KLAX - KSMX

Flight Track Log - Related Links

Times and Time Zones

All times are in EDT time to prevent confusion due to time zone crossing. See the SKW6446 flight status page for this flight to view local times or setup timezone preferences in your user account.

Time Position Orientation Groundspeed Altitude Reporting Facility
EDT Latitude Longitude Course Direction KTS MPH feet Rate Location/Type
08:18PM 33.9500 -118.4500 276° West 142 163 1,900  Level Southern California TRACON
08:19PM 33.9531 -118.4881 276° West 168 193 2,700 1,560 Climbing Los Angeles Center
08:20PM 33.9636 -118.5567 281° West 192 221 4,600 1,620 Climbing Los Angeles Center
08:21PM 33.9714 -118.6197 278° West 191 220 6,200 1,500 Climbing Los Angeles Center
08:22PM 33.9861 -118.6922 284° West 206 237 7,800 1,320 Climbing Los Angeles Center
08:23PM 34.0094 -118.7608 292° West 220 253 9,000 540 Climbing Los Angeles Center
08:24PM 34.0389 -118.8381 295° West 249 287 9,000  Level Los Angeles Center
08:25PM 34.0706 -118.9139 297° West 252 290 9,000  Level Los Angeles Center
08:26PM 34.1117 -118.9814 306° West 251 289 9,000 180 Level Los Angeles Center
08:27PM 34.1581 -119.0403 314° West 243 280 9,400 900 Climbing Los Angeles Center
08:28PM 34.2158 -119.0972 321° Northwest 222 255 10,900 1,320 Climbing Los Angeles Center
08:29PM 34.2636 -119.1411 323° Northwest 216 249 12,200 1,080 Climbing Los Angeles Center
08:30PM 34.3117 -119.1844 323° Northwest 215 247 13,200 840 Climbing Los Angeles Center
08:31PM 34.3606 -119.2289 323° Northwest 219 252 14,000 360 Climbing Los Angeles Center
08:32PM 34.3922 -119.3003 298° West 253 291 14,000  Level Los Angeles Center
08:33PM 34.4144 -119.4025 285° West 262 302 14,000 -60 Level Los Angeles Center
08:34PM 34.4356 -119.4878 287° West 265 305 13,900 -60 Descending Los Angeles Center
08:35PM 34.4586 -119.5742 288° West 270 311 13,900  Level Los Angeles Center
08:36PM 34.4808 -119.6603 287° West 268 308 13,900  Level Los Angeles Center
08:37PM 34.5033 -119.7453 288° West 266 306 13,900 -300 Level Los Angeles Center
08:38PM 34.5397 -119.8378 296° West 275 316 13,400 -840 Descending Los Angeles Center
08:40PM 34.5892 -119.9342 302° West 284 327 12,100 -1,380 Descending Los Angeles Center
08:41PM 34.6272 -120.0186 299° West 269 310 10,400 -1,740 Descending Los Angeles Center
08:41PM 34.6564 -120.0822 299° West 265 305 9,000 -1,740 Descending Los Angeles Center
08:42PM 34.6931 -120.1411 307° West 249 287 7,500 -1,620 Descending Los Angeles Center
08:43PM 34.7061 -120.1594 311° West 252 290 7,100 -1,560 Descending Los Angeles Center
08:43PM 34.7367 -120.2133 305° West 236 272 5,800 -1,380 Descending Los Angeles Center
08:44PM 34.7689 -120.2711 304° West 218 251 4,600 -1,200 Descending Los Angeles Center
08:45PM 34.7764 -120.2839 306° West 222 255 4,300 -1,500 Descending Los Angeles Center
08:46PM 34.8081 -120.3422 303° West 208 239 2,800 -1,620 Descending Los Angeles Center